Time;durP1;ratioP1;P1;durP2;ratioP2;P2;SDS_P1;SDS_P2;PMS_P1;PMS_P2;Temp;Humidity;BMP_temperature;BMP_pressure;BME280_temperature;BME280_humidity;BME280_pressure;Samples;Min_cycle;Max_cycle;Signal;HPM_P1;HPM_P2
2021/01/30 00:00:39;;;;;;;4.07;3.13;;;7.60;99.90;;;;;;5033104;28;20184;-63
2021/01/30 00:03:06;;;;;;;3.53;3.20;;;7.50;99.90;;;;;;5034179;28;20175;-63
2021/01/30 00:05:32;;;;;;;8.10;4.70;;;7.50;99.90;;;;;;5019967;28;20184;-64
2021/01/30 00:07:58;;;;;;;8.13;4.43;;;7.50;99.90;;;;;;4994031;28;20674;-65
2021/01/30 00:10:24;;;;;;;9.47;4.63;;;7.40;99.90;;;;;;4995295;28;20219;-65
2021/01/30 00:12:50;;;;;;;5.90;4.53;;;7.30;99.90;;;;;;4994197;28;20255;-63
2021/01/30 00:15:20;;;;;;;8.37;4.33;;;7.30;99.90;;;;;;5002173;28;20184;-64
2021/01/30 00:17:47;;;;;;;7.63;3.93;;;7.20;99.90;;;;;;5013305;28;20210;-64
2021/01/30 00:20:15;;;;;;;11.50;3.27;;;7.20;99.90;;;;;;5005899;28;20192;-64
2021/01/30 00:22:40;;;;;;;8.77;4.93;;;7.10;99.90;;;;;;4994206;28;20177;-64
2021/01/30 00:25:06;;;;;;;5.40;3.53;;;7.10;99.90;;;;;;4999699;28;20671;-64
2021/01/30 00:27:32;;;;;;;4.10;3.13;;;7.10;99.90;;;;;;5013066;28;20266;-64
2021/01/30 00:29:58;;;;;;;4.47;3.77;;;7.10;99.90;;;;;;5008918;28;20176;-64
2021/01/30 00:32:23;;;;;;;8.10;4.80;;;7.10;99.90;;;;;;4993830;28;20201;-63
2021/01/30 00:34:49;;;;;;;8.67;4.40;;;7.10;99.90;;;;;;4996203;28;20181;-64
2021/01/30 00:37:22;;;;;;;9.17;5.07;;;7.00;99.90;;;;;;5012850;28;20916;-63
2021/01/30 00:39:49;;;;;;;8.00;3.93;;;7.00;99.90;;;;;;5011278;28;20609;-64
2021/01/30 00:42:19;;;;;;;10.20;5.30;;;7.00;99.90;;;;;;4992592;28;20184;-64
2021/01/30 00:44:45;;;;;;;6.43;5.00;;;7.00;99.90;;;;;;4994330;28;20601;-64
2021/01/30 00:47:11;;;;;;;11.03;4.90;;;7.00;99.90;;;;;;5012841;28;20286;-64
2021/01/30 00:49:43;;;;;;;7.53;5.13;;;7.00;99.90;;;;;;5013239;28;20180;-65
2021/01/30 00:52:10;;;;;;;7.47;5.13;;;7.00;99.90;;;;;;4993407;28;20662;-64
2021/01/30 00:54:36;;;;;;;10.17;6.50;;;7.00;99.90;;;;;;5006833;28;20608;-63
2021/01/30 00:57:02;;;;;;;8.97;6.07;;;7.00;99.90;;;;;;5012486;28;20303;-65
2021/01/30 00:59:28;;;;;;;16.77;6.30;;;7.00;99.90;;;;;;5000328;28;20195;-64
2021/01/30 01:01:54;;;;;;;12.77;6.70;;;7.00;99.90;;;;;;4993309;28;20181;-64
2021/01/30 01:04:20;;;;;;;10.93;6.37;;;7.00;99.90;;;;;;5003299;28;20187;-64
2021/01/30 01:06:47;;;;;;;13.10;6.20;;;7.00;99.90;;;;;;5012564;28;20547;-63
2021/01/30 01:09:13;;;;;;;7.30;5.97;;;6.90;99.90;;;;;;5006776;28;20216;-64
2021/01/30 01:11:40;;;;;;;11.73;7.50;;;6.90;99.90;;;;;;4993081;28;20231;-64
2021/01/30 01:14:06;;;;;;;13.13;7.00;;;6.90;99.90;;;;;;5000238;28;20192;-64
2021/01/30 01:16:32;;;;;;;13.63;7.60;;;6.90;99.90;;;;;;5012427;28;20198;-64
2021/01/30 01:18:58;;;;;;;10.60;7.30;;;6.90;99.90;;;;;;5006062;28;20548;-64
2021/01/30 01:21:24;;;;;;;15.40;7.30;;;6.90;99.90;;;;;;4992801;28;20192;-64
2021/01/30 01:23:49;;;;;;;8.93;7.00;;;6.90;99.90;;;;;;5004793;28;20212;-65
2021/01/30 01:26:17;;;;;;;9.70;7.37;;;6.90;99.90;;;;;;5012185;28;20196;-65
2021/01/30 01:28:44;;;;;;;11.73;7.70;;;6.90;99.90;;;;;;5001214;28;20526;-65
2021/01/30 01:31:11;;;;;;;11.93;8.17;;;6.90;99.90;;;;;;4992818;28;20689;-64
2021/01/30 01:33:37;;;;;;;13.20;8.17;;;6.90;99.90;;;;;;5001639;28;20192;-64
2021/01/30 01:36:04;;;;;;;10.50;7.70;;;6.90;99.90;;;;;;5012202;28;20200;-65
2021/01/30 01:38:29;;;;;;;14.13;9.00;;;7.00;99.90;;;;;;5003962;28;20277;-63
2021/01/30 01:40:55;;;;;;;12.43;9.00;;;7.00;99.90;;;;;;4991872;28;20205;-63
2021/01/30 01:43:25;;;;;;;20.13;9.83;;;6.90;99.90;;;;;;4998021;28;20169;-63
2021/01/30 01:46:10;;;;;;;13.93;9.43;;;6.90;99.90;;;;;;5004162;28;20201;-64
2021/01/30 01:48:41;;;;;;;14.57;9.93;;;6.90;99.90;;;;;;4998905;28;20183;-63
2021/01/30 01:51:14;;;;;;;16.87;8.63;;;6.80;99.90;;;;;;5012322;28;20176;-65
2021/01/30 01:53:43;;;;;;;13.27;9.20;;;6.80;99.90;;;;;;5004850;28;20180;-64
2021/01/30 01:56:14;;;;;;;10.57;7.93;;;6.70;99.90;;;;;;4991551;28;20216;-64
2021/01/30 01:58:47;;;;;;;12.73;9.33;;;6.60;99.90;;;;;;4997954;28;20310;-64
2021/01/30 02:01:13;;;;;;;14.43;8.83;;;6.60;99.90;;;;;;5011910;28;20207;-64
2021/01/30 02:03:44;;;;;;;15.77;10.57;;;6.60;99.90;;;;;;5006394;28;20212;-65
2021/01/30 02:06:10;;;;;;;16.40;10.27;;;6.60;99.90;;;;;;4992230;28;20196;-64
2021/01/30 02:08:36;;;;;;;17.40;10.47;;;6.50;99.90;;;;;;4996021;28;20179;-64
2021/01/30 02:11:02;;;;;;;14.03;9.63;;;6.50;99.90;;;;;;5011906;28;20259;-65
2021/01/30 02:13:33;;;;;;;16.87;8.97;;;6.40;99.90;;;;;;5008925;28;20544;-64
2021/01/30 02:16:16;;;;;;;15.37;9.10;;;6.30;99.90;;;;;;4992140;28;20207;-64
2021/01/30 02:19:19;;;;;;;14.50;8.63;;;6.20;99.90;;;;;;4995348;28;20636;-65
2021/01/30 02:22:00;;;;;;;14.87;8.20;;;6.20;99.90;;;;;;5011996;28;20184;-64
2021/01/30 02:25:15;;;;;;;17.50;8.77;;;6.20;99.90;;;;;;5009933;28;20191;-65
2021/01/30 02:28:06;;;;;;;17.97;10.00;;;6.20;99.90;;;;;;5011402;28;20195;-65
2021/01/30 02:31:06;;;;;;;29.73;17.00;;;6.00;99.90;;;;;;4994035;28;20708;-64
2021/01/30 02:34:11;;;;;;;27.27;16.50;;;5.70;99.90;;;;;;4988211;28;20204;-65
2021/01/30 02:37:11;;;;;;;35.23;19.37;;;5.50;99.90;;;;;;4993538;28;20270;-65
2021/01/30 02:39:39;;;;;;;38.30;18.17;;;5.20;99.90;;;;;;5003139;28;20643;-64
2021/01/30 02:42:20;;;;;;;35.57;19.17;;;5.10;99.90;;;;;;4991227;28;20243;-64
2021/01/30 02:44:55;;;;;;;35.83;19.33;;;5.00;99.90;;;;;;5000814;28;20589;-64
2021/01/30 02:47:23;;;;;;;33.30;15.40;;;4.80;99.90;;;;;;5011307;28;20625;-64
2021/01/30 02:49:58;;;;;;;31.23;17.07;;;4.70;99.90;;;;;;5002401;28;20187;-63
2021/01/30 02:52:27;;;;;;;35.70;18.87;;;4.70;99.90;;;;;;4991669;28;20212;-64
2021/01/30 02:54:56;;;;;;;31.90;18.60;;;4.60;99.90;;;;;;5000343;28;20180;-63
2021/01/30 02:57:24;;;;;;;27.40;17.30;;;4.50;99.90;;;;;;5010782;28;20220;-64
2021/01/30 02:59:53;;;;;;;39.00;19.37;;;4.50;99.90;;;;;;5003698;28;20185;-64
2021/01/30 03:02:19;;;;;;;34.33;18.97;;;4.50;99.90;;;;;;4991578;28;20181;-64
2021/01/30 03:04:46;;;;;;;38.93;20.60;;;4.40;99.90;;;;;;4998007;28;20187;-64
2021/01/30 03:07:49;;;;;;;41.27;20.97;;;4.20;99.90;;;;;;4999097;28;20197;-63
2021/01/30 03:10:32;;;;;;;40.27;20.37;;;4.20;99.90;;;;;;5004638;28;20235;-65
2021/01/30 03:13:07;;;;;;;40.83;22.27;;;4.10;99.90;;;;;;5014983;28;20633;-64
2021/01/30 03:15:35;;;;;;;39.17;21.10;;;4.10;99.90;;;;;;5003143;28;20259;-65
2021/01/30 03:18:03;;;;;;;35.13;19.30;;;4.10;99.90;;;;;;4994860;28;20213;-64
2021/01/30 03:20:31;;;;;;;33.83;16.93;;;4.10;99.90;;;;;;5004810;28;20180;-65
2021/01/30 03:23:00;;;;;;;23.70;14.73;;;4.10;99.90;;;;;;5008987;28;20177;-64
2021/01/30 03:25:27;;;;;;;27.33;14.40;;;4.00;99.90;;;;;;4995033;28;20238;-63
2021/01/30 03:27:56;;;;;;;18.73;12.33;;;3.90;99.90;;;;;;4999152;28;20188;-64
2021/01/30 03:30:23;;;;;;;25.70;12.97;;;3.80;99.90;;;;;;5014312;28;20180;-64
2021/01/30 03:32:48;;;;;;;20.47;11.33;;;3.70;99.90;;;;;;5011294;28;20528;-64
2021/01/30 03:35:14;;;;;;;14.63;11.23;;;3.50;99.90;;;;;;4994915;28;20180;-65
2021/01/30 03:37:40;;;;;;;22.53;13.30;;;3.30;99.90;;;;;;4995744;28;20275;-65
2021/01/30 03:40:08;;;;;;;22.23;13.33;;;3.30;99.90;;;;;;5013250;28;20687;-64
2021/01/30 03:42:37;;;;;;;24.10;13.10;;;3.30;99.90;;;;;;5013016;28;20659;-65
2021/01/30 03:45:11;;;;;;;25.70;14.27;;;3.40;99.90;;;;;;4994807;28;20173;-64
2021/01/30 03:47:37;;;;;;;24.00;15.93;;;3.40;99.90;;;;;;4994238;28;20266;-64
2021/01/30 03:50:05;;;;;;;24.97;13.73;;;3.40;99.90;;;;;;5013951;28;20176;-63
2021/01/30 03:52:31;;;;;;;24.50;15.67;;;3.40;99.90;;;;;;5014133;28;20180;-64
2021/01/30 03:54:57;;;;;;;25.43;14.17;;;3.40;99.90;;;;;;4996028;28;20571;-64
2021/01/30 03:57:22;;;;;;;27.10;15.23;;;3.30;99.90;;;;;;4993874;28;20216;-64
2021/01/30 03:59:49;;;;;;;29.37;16.20;;;3.40;99.90;;;;;;5010377;28;20187;-64
2021/01/30 04:02:15;;;;;;;30.90;16.30;;;3.40;99.90;;;;;;5013866;28;20194;-64
2021/01/30 04:04:43;;;;;;;31.23;18.33;;;3.40;99.90;;;;;;4999324;28;20181;-63
2021/01/30 04:07:08;;;;;;;27.17;17.73;;;3.40;99.90;;;;;;4994062;28;20196;-63
2021/01/30 04:09:34;;;;;;;29.40;17.60;;;3.40;99.90;;;;;;5005480;28;20207;-65
2021/01/30 04:11:59;;;;;;;31.90;18.13;;;3.20;99.90;;;;;;5013822;28;20646;-63
2021/01/30 04:14:25;;;;;;;36.03;21.03;;;3.10;99.90;;;;;;5002318;28;20275;-64
2021/01/30 04:16:50;;;;;;;36.43;21.53;;;3.00;99.90;;;;;;4993595;28;20205;-64
2021/01/30 04:19:16;;;;;;;39.97;24.40;;;3.00;99.90;;;;;;5002192;28;20210;-63
2021/01/30 04:21:42;;;;;;;38.77;23.93;;;3.00;99.90;;;;;;5013647;28;20536;-63
2021/01/30 04:24:08;;;;;;;39.37;24.80;;;3.00;99.90;;;;;;5004924;28;20177;-64
2021/01/30 04:26:33;;;;;;;43.03;23.60;;;3.00;99.90;;;;;;4993708;28;20197;-64
2021/01/30 04:28:59;;;;;;;42.03;24.87;;;2.90;99.90;;;;;;4998792;28;20210;-63
2021/01/30 04:31:24;;;;;;;43.23;24.27;;;2.90;99.90;;;;;;5013617;28;20215;-63
2021/01/30 04:33:51;;;;;;;42.37;23.30;;;2.80;99.90;;;;;;5009579;28;20254;-63
2021/01/30 04:36:18;;;;;;;42.60;23.47;;;2.80;99.90;;;;;;4993680;28;20203;-64
2021/01/30 04:38:44;;;;;;;44.87;23.27;;;2.80;99.90;;;;;;4995054;28;20343;-63
2021/01/30 04:41:34;;;;;;;48.17;24.67;;;2.80;99.90;;;;;;5012454;28;20685;-63
2021/01/30 04:44:03;;;;;;;45.50;22.17;;;2.70;99.90;;;;;;5009622;28;20173;-63
2021/01/30 04:47:04;;;;;;;45.70;25.43;;;2.70;99.90;;;;;;4993217;28;20196;-63
2021/01/30 04:49:54;;;;;;;47.03;24.00;;;2.80;99.90;;;;;;5000249;28;20267;-64
2021/01/30 04:52:45;;;;;;;53.50;24.80;;;2.70;99.90;;;;;;5011652;28;20176;-64
2021/01/30 04:55:19;;;;;;;60.87;27.17;;;2.70;99.90;;;;;;5001118;28;20184;-64
2021/01/30 04:58:02;;;;;;;48.93;24.80;;;2.80;99.90;;;;;;4993252;28;20208;-64
2021/01/30 05:00:51;;;;;;;44.50;23.40;;;2.70;99.90;;;;;;5006232;28;20572;-64
2021/01/30 05:03:31;;;;;;;47.03;25.67;;;2.70;99.90;;;;;;5012837;28;20270;-63
2021/01/30 05:06:02;;;;;;;46.10;23.53;;;2.70;99.90;;;;;;4994753;28;20231;-64
2021/01/30 05:08:40;;;;;;;41.07;22.20;;;2.70;99.90;;;;;;4992589;28;20189;-65
2021/01/30 05:11:12;;;;;;;40.00;21.87;;;2.60;99.90;;;;;;5010147;28;20180;-65
2021/01/30 05:13:43;;;;;;;39.37;19.83;;;2.60;99.90;;;;;;5012625;28;20191;-64
2021/01/30 05:16:20;;;;;;;30.27;18.90;;;2.60;99.90;;;;;;4998998;28;20635;-63
2021/01/30 05:18:57;;;;;;;33.37;20.60;;;2.50;99.90;;;;;;4996143;28;20221;-64
2021/01/30 05:21:37;;;;;;;38.00;22.93;;;2.40;99.90;;;;;;5012582;28;20176;-63
2021/01/30 05:24:03;;;;;;;40.27;23.13;;;2.40;99.90;;;;;;4993239;28;20172;-63
2021/01/30 05:27:03;;;;;;;36.17;23.27;;;2.50;99.90;;;;;;4992492;28;20196;-64
2021/01/30 05:29:36;;;;;;;43.53;23.67;;;2.50;99.90;;;;;;4989491;28;20196;-65
2021/01/30 05:32:31;;;;;;;39.83;24.60;;;2.40;99.90;;;;;;4993079;28;20591;-64
2021/01/30 05:35:02;;;;;;;39.00;24.10;;;2.40;99.90;;;;;;4992483;28;20212;-63
2021/01/30 05:37:54;;;;;;;42.63;24.60;;;2.30;99.90;;;;;;4995013;28;20196;-64
2021/01/30 05:40:32;;;;;;;43.10;25.63;;;2.40;99.90;;;;;;5011662;28;20199;-64
2021/01/30 05:43:22;;;;;;;47.60;26.00;;;2.30;99.90;;;;;;5004195;28;20187;-63
2021/01/30 05:45:59;;;;;;;46.73;24.93;;;2.30;99.90;;;;;;4991285;28;20228;-64
2021/01/30 05:48:34;;;;;;;47.53;26.17;;;2.20;99.90;;;;;;5001919;28;20192;-64
2021/01/30 05:51:23;;;;;;;45.60;25.30;;;2.20;99.90;;;;;;5012307;28;20266;-63
2021/01/30 05:53:49;;;;;;;46.23;25.60;;;2.20;99.90;;;;;;4998229;28;20263;-64
2021/01/30 05:56:15;;;;;;;45.67;25.97;;;2.20;99.90;;;;;;5043424;23;20223;-64
2021/01/30 05:58:44;;;;;;;48.17;25.97;;;2.20;99.90;;;;;;5011457;28;20283;-64
2021/01/30 06:01:16;;;;;;;43.43;24.80;;;2.20;99.90;;;;;;5015441;28;20175;-63
2021/01/30 06:03:56;;;;;;;38.33;23.13;;;2.30;99.90;;;;;;5030366;28;20183;-65
2021/01/30 06:06:23;;;;;;;44.23;23.73;;;2.30;99.90;;;;;;5033717;28;20198;-63
2021/01/30 06:09:23;;;;;;;44.07;25.00;;;2.40;99.90;;;;;;5031230;28;20187;-64
2021/01/30 06:11:50;;;;;;;34.93;22.93;;;2.40;99.90;;;;;;5035584;28;20269;-64
2021/01/30 06:14:36;;;;;;;38.87;23.13;;;2.30;99.90;;;;;;5051432;28;20281;-64
2021/01/30 06:17:13;;;;;;;39.23;22.27;;;2.30;99.90;;;;;;5042277;28;20202;-65
2021/01/30 06:19:38;;;;;;;36.60;21.60;;;2.30;99.90;;;;;;5031471;28;20186;-64
2021/01/30 06:22:10;;;;;;;35.40;21.63;;;2.20;99.90;;;;;;5032515;28;20180;-64
2021/01/30 06:24:36;;;;;;;38.63;21.77;;;2.20;99.90;;;;;;5031491;28;20565;-64
2021/01/30 06:27:11;;;;;;;36.57;22.80;;;2.20;99.90;;;;;;5038010;28;20286;-64
2021/01/30 06:29:53;;;;;;;31.93;20.30;;;2.20;99.90;;;;;;5051283;28;20240;-65
2021/01/30 06:32:19;;;;;;;36.03;21.43;;;2.20;99.90;;;;;;5042111;28;20183;-64
2021/01/30 06:34:46;;;;;;;37.27;21.10;;;2.30;99.90;;;;;;5031256;28;20171;-64
2021/01/30 06:37:31;;;;;;;29.57;19.43;;;2.20;99.90;;;;;;5045058;28;20205;-65
2021/01/30 06:40:07;;;;;;;31.47;19.90;;;2.10;99.90;;;;;;5051311;28;20163;-64
2021/01/30 06:42:35;;;;;;;30.00;17.60;;;2.00;99.90;;;;;;5037198;28;20202;-64
2021/01/30 06:45:07;;;;;;;33.13;19.97;;;2.00;99.90;;;;;;5035263;28;20242;-64
2021/01/30 06:47:49;;;;;;;31.30;17.87;;;1.90;99.90;;;;;;5036954;28;20207;-64
2021/01/30 06:50:39;;;;;;;34.10;18.50;;;1.80;99.90;;;;;;5035047;28;20186;-64
2021/01/30 06:53:25;;;;;;;28.40;17.10;;;1.90;99.90;;;;;;5054437;28;20273;-64
2021/01/30 06:55:51;;;;;;;26.83;17.23;;;1.80;99.90;;;;;;5053990;28;20624;-64
2021/01/30 06:58:32;;;;;;;27.97;17.47;;;1.90;99.90;;;;;;5034684;28;20203;-63
2021/01/30 07:01:12;;;;;;;28.57;17.93;;;1.90;99.90;;;;;;5035651;28;20172;-64
2021/01/30 07:04:15;;;;;;;32.97;19.50;;;1.90;99.90;;;;;;5054701;28;20598;-63
2021/01/30 07:07:12;;;;;;;31.40;19.73;;;1.80;99.90;;;;;;5048081;28;20630;-64
2021/01/30 07:09:38;;;;;;;34.27;19.87;;;1.80;99.90;;;;;;5034679;28;20176;-63
2021/01/30 07:12:42;;;;;;;32.80;20.47;;;1.80;99.90;;;;;;5042899;28;20182;-62
2021/01/30 07:15:20;;;;;;;31.37;19.17;;;1.80;99.90;;;;;;5036232;28;20198;-64
2021/01/30 07:17:58;;;;;;;33.73;19.10;;;1.80;99.90;;;;;;5040421;28;20207;-64
2021/01/30 07:20:35;;;;;;;36.30;22.20;;;1.80;99.90;;;;;;5034486;28;20301;-64
2021/01/30 07:23:16;;;;;;;33.07;21.77;;;1.80;99.90;;;;;;5054423;28;20186;-63
2021/01/30 07:26:00;;;;;;;34.93;21.17;;;1.80;99.90;;;;;;5051673;28;20198;-62
2021/01/30 07:28:35;;;;;;;34.33;20.67;;;1.80;99.90;;;;;;5033890;28;20187;-64
2021/01/30 07:31:23;;;;;;;28.63;19.73;;;1.80;99.90;;;;;;5036756;28;20174;-63
2021/01/30 07:33:51;;;;;;;36.07;22.57;;;1.80;99.90;;;;;;5043404;28;20240;-63
2021/01/30 07:36:35;;;;;;;35.60;21.07;;;1.80;99.90;;;;;;5052209;28;20660;-62
2021/01/30 07:39:03;;;;;;;40.00;22.53;;;1.80;99.90;;;;;;5052021;28;20213;-63
2021/01/30 07:41:48;;;;;;;40.87;24.33;;;1.80;99.90;;;;;;5052829;28;20175;-62
2021/01/30 07:44:24;;;;;;;40.37;22.60;;;1.80;99.90;;;;;;5046711;28;20537;-64
2021/01/30 07:47:10;;;;;;;42.37;24.50;;;1.90;99.90;;;;;;5037150;28;20248;-65
2021/01/30 07:49:39;;;;;;;38.43;23.77;;;1.80;99.90;;;;;;5037692;28;20170;-64
2021/01/30 07:52:09;;;;;;;41.30;24.03;;;1.80;99.90;;;;;;5013488;28;20176;-63
2021/01/30 07:54:45;;;;;;;35.77;21.37;;;1.80;99.90;;;;;;5028376;28;20636;-65
2021/01/30 07:57:21;;;;;;;32.63;20.43;;;1.80;99.90;;;;;;5023488;28;20211;-64
2021/01/30 07:59:50;;;;;;;35.63;21.47;;;1.80;99.90;;;;;;5033996;28;20168;-63
2021/01/30 08:02:52;;;;;;;33.03;20.07;;;1.80;99.90;;;;;;5039575;28;20163;-64
2021/01/30 08:05:30;;;;;;;30.67;19.03;;;1.80;99.90;;;;;;5034437;28;20171;-64
2021/01/30 08:08:27;;;;;;;33.57;20.03;;;1.70;99.90;;;;;;5037725;28;20663;-63
2021/01/30 08:11:12;;;;;;;26.57;17.90;;;1.80;99.90;;;;;;5051774;28;20182;-65
2021/01/30 08:14:03;;;;;;;31.60;18.50;;;1.80;99.90;;;;;;5043214;28;20186;-63
2021/01/30 08:16:44;;;;;;;28.63;18.97;;;1.80;99.90;;;;;;5035504;28;20207;-64
2021/01/30 08:19:16;;;;;;;27.77;18.20;;;1.80;99.90;;;;;;5033041;28;20207;-62
2021/01/30 08:21:51;;;;;;;27.27;18.93;;;1.80;99.90;;;;;;5033261;28;20182;-62
2021/01/30 08:24:28;;;;;;;25.73;18.50;;;1.90;99.90;;;;;;5033246;28;20163;-64
2021/01/30 08:27:16;;;;;;;24.87;16.97;;;1.80;99.90;;;;;;5033068;28;20201;-64
2021/01/30 08:29:46;;;;;;;30.70;18.20;;;1.90;99.90;;;;;;5033165;28;20175;-63
2021/01/30 08:32:23;;;;;;;26.63;16.30;;;1.90;99.90;;;;;;5040044;28;20262;-64
2021/01/30 08:34:50;;;;;;;22.47;15.37;;;1.90;99.90;;;;;;5040677;28;20652;-64
2021/01/30 08:37:16;;;;;;;27.57;17.50;;;2.00;99.90;;;;;;5033656;28;20230;-62
2021/01/30 08:40:00;;;;;;;29.07;18.00;;;2.00;99.90;;;;;;5038818;28;20183;-62
2021/01/30 08:42:29;;;;;;;25.23;17.00;;;2.00;99.90;;;;;;5049500;28;20178;-64
2021/01/30 08:45:00;;;;;;;25.17;16.17;;;2.00;99.90;;;;;;5031693;28;20550;-63
2021/01/30 08:47:44;;;;;;;23.03;15.80;;;2.00;99.90;;;;;;5032464;28;20558;-65
2021/01/30 08:50:25;;;;;;;25.17;16.70;;;2.00;99.90;;;;;;5032658;28;20237;-64
2021/01/30 08:52:56;;;;;;;20.57;14.67;;;2.10;99.90;;;;;;5032598;28;20175;-64
2021/01/30 08:55:33;;;;;;;23.57;16.20;;;2.10;99.90;;;;;;5013060;28;20176;-65
2021/01/30 08:58:00;;;;;;;23.33;15.63;;;2.10;99.90;;;;;;5014106;28;20290;-64
2021/01/30 09:00:25;;;;;;;23.03;15.87;;;2.00;99.90;;;;;;5052316;28;20539;-64
2021/01/30 09:02:54;;;;;;;23.03;16.27;;;2.10;99.90;;;;;;5052295;28;20182;-63
2021/01/30 09:05:20;;;;;;;19.30;14.37;;;2.10;99.90;;;;;;5032220;28;20511;-63
2021/01/30 09:07:45;;;;;;;23.07;14.80;;;2.00;99.90;;;;;;5022696;28;20206;-64
2021/01/30 09:10:29;;;;;;;24.97;15.17;;;2.10;99.90;;;;;;5035457;28;20175;-63
2021/01/30 09:13:14;;;;;;;20.87;14.30;;;2.10;99.90;;;;;;5052235;28;20174;-63
2021/01/30 09:15:40;;;;;;;25.73;15.90;;;2.10;99.90;;;;;;5052365;28;20174;-65
2021/01/30 09:18:18;;;;;;;23.87;16.17;;;2.20;99.90;;;;;;5050917;28;20259;-64
2021/01/30 09:20:59;;;;;;;26.07;17.03;;;2.20;99.90;;;;;;5052040;28;20241;-65
2021/01/30 09:23:33;;;;;;;25.40;17.60;;;2.20;99.90;;;;;;5051414;28;20174;-64
2021/01/30 09:26:12;;;;;;;23.40;15.33;;;2.10;99.90;;;;;;5051969;28;20187;-64
2021/01/30 09:28:38;;;;;;;21.30;14.60;;;2.10;99.90;;;;;;5051564;28;20190;-64
2021/01/30 09:31:06;;;;;;;22.60;15.13;;;2.20;99.90;;;;;;5052097;28;20530;-64
2021/01/30 09:33:36;;;;;;;23.37;16.33;;;2.20;99.90;;;;;;5051660;28;20186;-64
2021/01/30 09:36:07;;;;;;;24.00;15.93;;;2.20;99.90;;;;;;5052015;28;20244;-64
2021/01/30 09:38:37;;;;;;;22.60;16.10;;;2.20;99.90;;;;;;5051277;28;20209;-64
2021/01/30 09:41:30;;;;;;;21.40;14.13;;;2.20;99.90;;;;;;5051793;28;20167;-63
2021/01/30 09:44:05;;;;;;;21.53;14.10;;;2.20;99.90;;;;;;5050599;28;20584;-64
2021/01/30 09:46:35;;;;;;;21.90;14.70;;;2.20;99.90;;;;;;5046228;28;20678;-64
2021/01/30 09:49:18;;;;;;;21.57;15.13;;;2.30;99.90;;;;;;5036159;28;20185;-64
2021/01/30 09:51:45;;;;;;;22.90;15.87;;;2.30;99.90;;;;;;5051701;28;20601;-64
2021/01/30 09:54:18;;;;;;;22.03;14.90;;;2.40;99.90;;;;;;5039520;28;20245;-64
2021/01/30 09:56:45;;;;;;;20.37;14.13;;;2.40;99.90;;;;;;5031270;28;20217;-65
2021/01/30 09:59:14;;;;;;;21.47;14.37;;;2.50;99.90;;;;;;5042018;28;20677;-62
2021/01/30 10:01:42;;;;;;;15.40;10.93;;;2.50;99.90;;;;;;5051585;28;20217;-64
2021/01/30 10:04:24;;;;;;;15.00;11.20;;;2.60;99.90;;;;;;5049829;28;20179;-63
2021/01/30 10:07:10;;;;;;;14.90;11.20;;;2.60;99.90;;;;;;5051069;28;20621;-64
2021/01/30 10:09:54;;;;;;;14.07;9.37;;;2.50;99.90;;;;;;5037142;28;20306;-65
2021/01/30 10:12:22;;;;;;;13.90;9.80;;;2.50;99.90;;;;;;5031587;28;20172;-64
2021/01/30 10:14:54;;;;;;;13.43;10.13;;;2.50;99.90;;;;;;5039973;28;20675;-64
2021/01/30 10:17:33;;;;;;;13.73;9.70;;;2.50;99.90;;;;;;5029058;28;20698;-64
2021/01/30 10:20:08;;;;;;;13.27;10.40;;;2.60;99.90;;;;;;5047153;28;20194;-65
2021/01/30 10:22:45;;;;;;;14.00;10.87;;;2.70;99.90;;;;;;5051217;28;20177;-64
2021/01/30 10:25:24;;;;;;;17.07;11.23;;;2.80;99.90;;;;;;5049635;28;20520;-62
2021/01/30 10:28:02;;;;;;;12.17;9.60;;;2.90;99.90;;;;;;5042579;28;20207;-64
2021/01/30 10:30:28;;;;;;;9.77;7.90;;;3.00;99.90;;;;;;5031151;28;20209;-65
2021/01/30 10:32:57;;;;;;;11.10;9.70;;;3.00;99.90;;;;;;5042261;28;20652;-65
2021/01/30 10:35:32;;;;;;;13.37;9.23;;;3.10;99.90;;;;;;5050881;28;20178;-64
2021/01/30 10:38:08;;;;;;;10.33;9.23;;;3.10;99.90;;;;;;5039218;28;20207;-64
2021/01/30 10:40:42;;;;;;;10.53;9.37;;;3.20;99.90;;;;;;5031062;28;20172;-64
2021/01/30 10:43:13;;;;;;;10.30;8.43;;;3.10;99.90;;;;;;5043128;28;20636;-64
2021/01/30 10:45:44;;;;;;;10.07;9.00;;;3.00;99.90;;;;;;5050894;28;20205;-64
2021/01/30 10:48:14;;;;;;;11.00;8.73;;;3.10;99.90;;;;;;5038523;28;20211;-64
2021/01/30 10:50:47;;;;;;;12.83;8.83;;;3.10;99.90;;;;;;5031020;28;20664;-64
2021/01/30 10:53:29;;;;;;;10.37;9.17;;;3.20;99.90;;;;;;5042496;28;20189;-63
2021/01/30 10:55:55;;;;;;;13.10;9.83;;;3.30;99.90;;;;;;5050722;28;20213;-64
2021/01/30 10:58:26;;;;;;;11.53;9.37;;;3.30;99.90;;;;;;5037861;28;20215;-65
2021/01/30 11:01:17;;;;;;;10.93;8.93;;;3.40;99.90;;;;;;5030964;28;20601;-64
2021/01/30 11:03:50;;;;;;;11.40;8.60;;;3.40;99.90;;;;;;5045222;28;20186;-63
2021/01/30 11:06:23;;;;;;;10.83;9.23;;;3.40;99.90;;;;;;5050899;28;20244;-64
2021/01/30 11:08:50;;;;;;;10.73;8.87;;;3.50;99.90;;;;;;5030152;28;20540;-65
2021/01/30 11:11:29;;;;;;;11.47;9.07;;;3.60;99.90;;;;;;5011397;28;20172;-65
2021/01/30 11:13:57;;;;;;;11.77;9.30;;;3.60;99.90;;;;;;5041958;28;20668;-63
2021/01/30 11:16:38;;;;;;;10.90;8.73;;;3.60;99.90;;;;;;5050387;28;20199;-64
2021/01/30 11:19:23;;;;;;;10.97;8.80;;;3.60;99.90;;;;;;5034065;28;20207;-63
2021/01/30 11:22:01;;;;;;;11.73;9.10;;;3.60;99.90;;;;;;5030808;28;20179;-65
2021/01/30 11:24:34;;;;;;;11.77;9.03;;;3.60;99.90;;;;;;5048681;28;20656;-64
2021/01/30 11:27:01;;;;;;;10.47;8.90;;;3.60;99.90;;;;;;5051375;28;20557;-64
2021/01/30 11:29:38;;;;;;;10.90;9.00;;;3.60;99.90;;;;;;5039753;28;20265;-65
2021/01/30 11:32:06;;;;;;;12.67;9.80;;;3.60;99.90;;;;;;5053850;28;20189;-63
2021/01/30 11:34:33;;;;;;;13.13;9.23;;;3.60;99.90;;;;;;5052312;28;20178;-64
2021/01/30 11:37:00;;;;;;;10.03;7.93;;;3.70;99.90;;;;;;5053725;28;20202;-64
2021/01/30 11:39:31;;;;;;;10.27;8.67;;;3.80;99.90;;;;;;5033265;28;20215;-64
2021/01/30 11:41:57;;;;;;;10.17;8.03;;;4.00;99.90;;;;;;5034003;28;20171;-62
2021/01/30 11:44:25;;;;;;;9.17;8.20;;;4.00;99.90;;;;;;5051986;28;20194;-62
2021/01/30 11:46:50;;;;;;;9.53;7.83;;;4.20;99.90;;;;;;5053589;28;20236;-64
2021/01/30 11:49:16;;;;;;;9.67;8.30;;;4.20;99.90;;;;;;5039746;28;20688;-64
2021/01/30 11:51:42;;;;;;;9.93;8.17;;;4.20;99.90;;;;;;5053879;28;20178;-62
2021/01/30 11:54:10;;;;;;;11.87;9.17;;;4.30;99.90;;;;;;5038574;28;20190;-64
2021/01/30 11:56:36;;;;;;;13.00;10.03;;;4.30;99.90;;;;;;5041284;23;20234;-65
2021/01/30 11:59:02;;;;;;;14.57;11.33;;;4.30;99.90;;;;;;5019458;28;20607;-65
2021/01/30 12:01:27;;;;;;;12.47;9.33;;;4.50;99.90;;;;;;5013845;28;20180;-64
2021/01/30 12:03:53;;;;;;;8.37;7.00;;;4.50;99.90;;;;;;5028507;28;20187;-64
2021/01/30 12:06:18;;;;;;;9.20;7.67;;;4.50;99.90;;;;;;5016481;28;20204;-64
2021/01/30 12:08:44;;;;;;;9.17;7.47;;;4.40;99.90;;;;;;4993127;28;20200;-65
2021/01/30 12:11:11;;;;;;;10.47;8.03;;;4.40;99.90;;;;;;5009559;28;20214;-64
2021/01/30 12:13:37;;;;;;;9.60;8.30;;;4.40;99.90;;;;;;5013509;28;20192;-64
2021/01/30 12:16:04;;;;;;;9.80;8.60;;;4.30;99.90;;;;;;4999620;28;20181;-64
2021/01/30 12:18:29;;;;;;;12.50;10.27;;;4.40;99.90;;;;;;4993878;28;20208;-65
2021/01/30 12:20:55;;;;;;;10.97;9.43;;;4.50;99.90;;;;;;5002391;28;20176;-65
2021/01/30 12:23:21;;;;;;;10.90;8.93;;;4.50;99.90;;;;;;4993932;28;20177;-64
2021/01/30 12:25:47;;;;;;;10.83;8.77;;;4.50;99.90;;;;;;4994015;28;20173;-64
2021/01/30 12:28:23;;;;;;;12.03;9.33;;;4.50;99.90;;;;;;5003016;28;20576;-65
2021/01/30 12:30:49;;;;;;;10.47;9.23;;;4.50;99.90;;;;;;5013266;28;20175;-64
2021/01/30 12:33:15;;;;;;;9.63;7.80;;;4.60;99.90;;;;;;5005143;28;20180;-64
2021/01/30 12:35:41;;;;;;;9.83;8.40;;;4.70;99.90;;;;;;5013233;28;20180;-65
2021/01/30 12:38:07;;;;;;;8.50;7.60;;;4.80;99.90;;;;;;5004420;28;20248;-64
2021/01/30 12:40:36;;;;;;;8.37;7.27;;;4.90;99.90;;;;;;4993483;28;20619;-65
2021/01/30 12:43:02;;;;;;;11.17;7.83;;;5.00;99.90;;;;;;4999736;28;20207;-64
2021/01/30 12:45:28;;;;;;;8.47;6.93;;;5.10;99.90;;;;;;5012916;28;20190;-64
2021/01/30 12:47:54;;;;;;;8.37;7.23;;;5.10;99.90;;;;;;5007408;28;20196;-65
2021/01/30 12:50:22;;;;;;;9.00;7.43;;;5.10;99.90;;;;;;4993372;28;20239;-65
2021/01/30 12:52:47;;;;;;;7.93;7.13;;;5.10;99.90;;;;;;4993553;28;20208;-64
2021/01/30 12:55:14;;;;;;;8.97;6.87;;;5.10;99.90;;;;;;4993505;28;20586;-65
2021/01/30 12:57:39;;;;;;;8.80;7.30;;;5.10;99.90;;;;;;5005664;28;20212;-64
2021/01/30 13:00:08;;;;;;;8.33;6.70;;;5.00;99.90;;;;;;5012972;28;20314;-64
2021/01/30 13:02:33;;;;;;;7.83;7.00;;;5.00;99.90;;;;;;4996836;28;20658;-65
2021/01/30 13:04:59;;;;;;;8.47;6.90;;;5.10;99.90;;;;;;4993071;28;20169;-65
2021/01/30 13:07:24;;;;;;;7.77;6.87;;;5.20;99.90;;;;;;5006468;28;20595;-64
2021/01/30 13:09:50;;;;;;;6.37;5.77;;;5.10;99.90;;;;;;5011839;28;20179;-65
2021/01/30 13:12:17;;;;;;;7.60;5.83;;;5.10;99.90;;;;;;5000533;28;20181;-64